createdAt,value
2023-04-27T00:01:52.021Z,6.60
2023-04-27T00:04:22.890Z,6.46
2023-04-27T00:07:01.985Z,6.53
2023-04-27T00:09:28.348Z,6.47
2023-04-27T00:11:54.955Z,6.50
2023-04-27T00:14:21.522Z,6.44
2023-04-27T00:16:47.983Z,6.44
2023-04-27T00:19:15.360Z,6.40
2023-04-27T00:21:41.882Z,6.36
2023-04-27T00:24:08.434Z,6.24
2023-04-27T00:26:34.809Z,6.18
2023-04-27T00:29:01.146Z,6.09
2023-04-27T00:31:27.611Z,6.04
2023-04-27T00:33:54.070Z,5.94
2023-04-27T00:36:20.409Z,5.78
2023-04-27T00:38:46.749Z,5.80
2023-04-27T00:41:13.088Z,5.73
2023-04-27T00:43:44.179Z,5.77
2023-04-27T00:46:12.917Z,5.76
2023-04-27T00:48:39.803Z,5.76
2023-04-27T00:51:06.474Z,5.75
2023-04-27T00:53:33.911Z,5.75
2023-04-27T00:56:00.644Z,5.79
2023-04-27T00:58:27.060Z,5.87
2023-04-27T01:00:53.871Z,5.74
2023-04-27T01:03:20.430Z,5.68
2023-04-27T01:05:46.890Z,5.64
2023-04-27T01:08:13.314Z,5.73
2023-04-27T01:10:41.057Z,5.70
2023-04-27T01:13:07.450Z,5.74
2023-04-27T01:15:33.822Z,5.71
2023-04-27T01:18:01.767Z,5.71
2023-04-27T01:20:31.931Z,5.66
2023-04-27T01:22:59.207Z,5.66
2023-04-27T01:25:26.065Z,5.65
2023-04-27T01:27:53.554Z,5.64
2023-04-27T01:30:19.890Z,5.56
2023-04-27T01:32:46.258Z,5.49
2023-04-27T01:35:12.699Z,5.47
2023-04-27T01:37:39.111Z,5.39
2023-04-27T01:40:06.609Z,5.34
2023-04-27T01:42:33.034Z,5.29
2023-04-27T01:45:00.401Z,5.26
2023-04-27T01:47:27.494Z,5.24
2023-04-27T01:49:53.828Z,5.09
2023-04-27T01:52:20.254Z,5.11
2023-04-27T01:54:46.601Z,5.06
2023-04-27T01:57:14.202Z,4.94
2023-04-27T01:59:40.619Z,4.87
2023-04-27T02:02:06.988Z,4.87
2023-04-27T02:04:33.849Z,4.79
2023-04-27T02:07:00.271Z,4.77
2023-04-27T02:09:26.691Z,4.68
2023-04-27T02:11:53.028Z,4.50
2023-04-27T02:14:19.449Z,4.42
2023-04-27T02:16:45.881Z,4.51
2023-04-27T02:19:12.414Z,4.55
2023-04-27T02:21:40.520Z,4.52
2023-04-27T02:24:07.689Z,4.52
2023-04-27T02:26:34.184Z,4.51
2023-04-27T02:29:00.556Z,4.52
2023-04-27T02:31:27.307Z,4.50
2023-04-27T02:33:53.750Z,4.52
2023-04-27T02:36:20.100Z,4.57
2023-04-27T02:38:46.462Z,4.50
2023-04-27T02:41:12.809Z,4.52
2023-04-27T02:43:39.143Z,4.41
2023-04-27T02:46:05.952Z,4.29
2023-04-27T02:48:32.592Z,4.22
2023-04-27T02:50:58.994Z,4.21
2023-04-27T02:53:25.575Z,4.20
2023-04-27T02:55:51.930Z,4.23
2023-04-27T02:58:21.396Z,3.99
2023-04-27T03:00:48.947Z,3.87
2023-04-27T03:03:15.754Z,3.92
2023-04-27T03:05:42.217Z,3.91
2023-04-27T03:08:08.532Z,3.94
2023-04-27T03:10:34.897Z,3.96
2023-04-27T03:13:01.301Z,3.91
2023-04-27T03:15:27.635Z,3.80
2023-04-27T03:17:54.057Z,3.79
2023-04-27T03:20:21.976Z,3.79
2023-04-27T03:22:48.714Z,3.85
2023-04-27T03:25:15.425Z,3.87
2023-04-27T03:27:43.281Z,3.86
2023-04-27T03:30:11.184Z,3.89
2023-04-27T03:32:37.601Z,3.94
2023-04-27T03:35:04.641Z,3.92
2023-04-27T03:37:31.156Z,3.89
2023-04-27T03:39:57.501Z,3.99
2023-04-27T03:42:23.956Z,3.99
2023-04-27T03:44:50.350Z,3.97
2023-04-27T03:47:16.717Z,3.94
2023-04-27T03:49:43.241Z,3.93
2023-04-27T03:52:09.579Z,3.86
2023-04-27T03:54:36.294Z,3.79
2023-04-27T03:57:02.727Z,3.83
2023-04-27T03:59:29.951Z,3.84
2023-04-27T04:01:59.554Z,3.84
2023-04-27T04:04:27.732Z,3.86
2023-04-27T04:06:54.241Z,3.95
2023-04-27T04:09:22.014Z,3.94
2023-04-27T04:11:52.260Z,3.94
2023-04-27T04:14:18.668Z,3.91
2023-04-27T04:16:45.008Z,3.92
2023-04-27T04:19:11.806Z,4.01
2023-04-27T04:21:38.267Z,4.05
2023-04-27T04:24:04.842Z,4.08
2023-04-27T04:26:31.211Z,4.13
2023-04-27T04:28:57.536Z,4.17
2023-04-27T04:31:23.876Z,4.22
2023-04-27T04:33:50.475Z,4.30
2023-04-27T04:36:16.809Z,4.36
2023-04-27T04:38:43.203Z,4.44
2023-04-27T04:41:10.490Z,4.46
2023-04-27T04:43:36.819Z,4.47
2023-04-27T04:46:03.255Z,4.48
2023-04-27T04:48:29.694Z,4.55
2023-04-27T04:50:57.216Z,4.60
2023-04-27T04:53:23.610Z,4.65
2023-04-27T04:55:49.896Z,4.67
2023-04-27T04:58:16.229Z,4.69
2023-04-27T05:00:42.990Z,4.67
2023-04-27T05:03:09.472Z,4.66
2023-04-27T05:05:35.917Z,4.66
2023-04-27T05:08:02.551Z,4.66
2023-04-27T05:10:28.996Z,4.70
2023-04-27T05:12:55.399Z,4.72
2023-04-27T05:15:21.722Z,4.71
2023-04-27T05:17:48.103Z,4.73
2023-04-27T05:20:14.728Z,4.76
2023-04-27T05:22:41.308Z,4.79
2023-04-27T05:25:08.466Z,4.90
2023-04-27T05:27:34.740Z,4.92
2023-04-27T05:30:01.170Z,5.05
2023-04-27T05:32:27.499Z,5.18
2023-04-27T05:34:53.870Z,5.26
2023-04-27T05:37:20.384Z,5.29
2023-04-27T05:39:46.743Z,5.40
2023-04-27T05:42:13.231Z,5.47
2023-04-27T05:44:39.589Z,5.58
2023-04-27T05:47:05.981Z,5.68
2023-04-27T05:49:32.511Z,5.73
2023-04-27T05:51:59.081Z,5.95
2023-04-27T05:54:25.710Z,6.05
2023-04-27T05:56:52.096Z,6.16
2023-04-27T05:59:18.451Z,6.32
2023-04-27T06:01:44.880Z,6.48
2023-04-27T06:04:11.348Z,6.63
2023-04-27T06:06:38.184Z,6.82
2023-04-27T06:09:04.719Z,7.03
2023-04-27T06:11:31.052Z,7.11
2023-04-27T06:13:57.398Z,7.29
2023-04-27T06:16:24.241Z,7.40
2023-04-27T06:18:50.994Z,7.55
2023-04-27T06:21:17.628Z,7.69
2023-04-27T06:23:44.064Z,7.96
2023-04-27T06:26:10.384Z,8.05
2023-04-27T06:28:36.757Z,8.11
2023-04-27T06:31:03.203Z,8.12
2023-04-27T06:33:29.551Z,8.12
2023-04-27T06:35:55.977Z,8.25
2023-04-27T06:38:22.317Z,8.47
2023-04-27T06:40:53.045Z,8.47
2023-04-27T06:43:19.446Z,8.58
2023-04-27T06:45:46.051Z,8.63
2023-04-27T06:48:12.584Z,8.74
2023-04-27T06:50:38.998Z,8.86
2023-04-27T06:53:05.341Z,9.03
2023-04-27T06:55:31.771Z,9.25
2023-04-27T06:57:58.142Z,9.40
2023-04-27T07:00:24.689Z,9.53
2023-04-27T07:02:51.638Z,9.74
2023-04-27T07:05:19.321Z,9.78
2023-04-27T07:07:45.679Z,9.77
2023-04-27T07:10:12.104Z,9.84
2023-04-27T07:12:38.625Z,9.94
2023-04-27T07:15:06.668Z,10.09
2023-04-27T07:17:33.213Z,10.16
2023-04-27T07:20:01.253Z,10.35
2023-04-27T07:22:28.854Z,10.20
2023-04-27T07:24:55.209Z,10.13
2023-04-27T07:27:22.153Z,10.31
2023-04-27T07:29:48.637Z,10.43
2023-04-27T07:32:15.173Z,10.54
2023-04-27T07:34:52.622Z,10.63
2023-04-27T07:37:19.757Z,10.90
2023-04-27T07:39:46.698Z,11.19
2023-04-27T07:42:13.222Z,10.98
2023-04-27T07:44:40.599Z,11.10
2023-04-27T07:47:06.965Z,11.25
2023-04-27T07:49:34.844Z,11.34
2023-04-27T07:52:01.787Z,11.52
2023-04-27T07:54:28.170Z,11.46
2023-04-27T07:56:54.741Z,11.53
2023-04-27T07:59:21.209Z,11.70
2023-04-27T08:01:47.911Z,11.86
2023-04-27T08:04:16.011Z,11.82
2023-04-27T08:06:43.167Z,11.86
2023-04-27T08:09:09.990Z,12.07
2023-04-27T08:11:36.376Z,12.17
2023-04-27T08:14:02.795Z,12.41
2023-04-27T08:16:29.145Z,12.60
2023-04-27T08:18:55.641Z,12.78
2023-04-27T08:21:22.031Z,12.83
2023-04-27T08:23:48.443Z,13.16
2023-04-27T08:26:16.113Z,13.05
2023-04-27T08:28:42.442Z,13.27
2023-04-27T08:31:09.040Z,13.38
2023-04-27T08:33:35.379Z,13.60
2023-04-27T08:36:01.742Z,13.43
2023-04-27T08:38:28.040Z,13.57
2023-04-27T08:40:54.726Z,13.69
2023-04-27T08:43:21.104Z,13.77
2023-04-27T08:45:50.125Z,13.76
2023-04-27T08:48:16.545Z,13.92
2023-04-27T08:50:44.877Z,13.96
2023-04-27T08:53:23.776Z,14.17
2023-04-27T08:55:50.624Z,13.78
2023-04-27T08:58:17.159Z,13.91
2023-04-27T09:00:45.331Z,13.87
2023-04-27T09:03:25.135Z,14.35
2023-04-27T09:06:03.759Z,14.53
2023-04-27T09:08:51.002Z,14.62
2023-04-27T09:11:31.172Z,14.76
2023-04-27T09:13:59.539Z,14.76
2023-04-27T09:16:29.013Z,14.90
2023-04-27T09:18:56.997Z,15.09
2023-04-27T09:21:33.833Z,15.09
2023-04-27T09:24:13.754Z,15.07
2023-04-27T09:26:42.531Z,15.19
2023-04-27T09:29:09.161Z,15.47
2023-04-27T09:31:36.919Z,15.55
2023-04-27T09:34:03.856Z,15.96
2023-04-27T09:36:32.338Z,15.98
2023-04-27T09:39:02.142Z,16.14
2023-04-27T09:41:28.879Z,16.13
2023-04-27T09:43:57.698Z,16.10
2023-04-27T09:46:25.755Z,16.18
2023-04-27T09:48:52.833Z,16.36
2023-04-27T09:51:19.151Z,16.38
2023-04-27T09:53:51.382Z,16.34
2023-04-27T09:56:37.982Z,16.12
2023-04-27T09:59:16.911Z,15.88
2023-04-27T10:01:49.183Z,16.23
2023-04-27T10:04:49.485Z,16.59
2023-04-27T10:07:17.766Z,16.40
2023-04-27T10:09:49.295Z,16.83
2023-04-27T10:12:36.556Z,16.88
2023-04-27T10:15:14.374Z,16.82
2023-04-27T10:17:48.652Z,16.85
2023-04-27T10:20:15.379Z,17.20
2023-04-27T10:22:42.717Z,17.16
2023-04-27T10:25:23.245Z,17.36
2023-04-27T10:27:54.505Z,17.42
2023-04-27T10:30:23.303Z,17.41
2023-04-27T10:32:54.334Z,17.41
2023-04-27T10:35:22.330Z,17.44
2023-04-27T10:37:48.936Z,17.30
2023-04-27T10:40:19.188Z,17.54
2023-04-27T10:42:49.119Z,17.36
2023-04-27T10:45:28.448Z,18.25
2023-04-27T10:48:01.366Z,18.24
2023-04-27T10:50:28.447Z,18.00
2023-04-27T10:52:54.834Z,18.36
2023-04-27T10:55:23.729Z,18.42
2023-04-27T10:57:52.583Z,18.12
2023-04-27T11:00:26.951Z,17.98
2023-04-27T11:02:54.978Z,18.34
2023-04-27T11:05:29.548Z,18.28
2023-04-27T11:08:09.825Z,18.76
2023-04-27T11:10:39.507Z,18.93
2023-04-27T11:13:11.256Z,19.12
2023-04-27T11:15:49.412Z,18.82
2023-04-27T11:18:17.999Z,18.33
2023-04-27T11:20:53.339Z,18.09
2023-04-27T11:23:27.796Z,18.29
2023-04-27T11:25:55.781Z,17.97
2023-04-27T11:28:26.045Z,17.74
2023-04-27T11:30:59.349Z,17.54
2023-04-27T11:33:26.936Z,18.03
2023-04-27T11:35:54.202Z,17.84
2023-04-27T11:38:21.874Z,17.88
2023-04-27T11:41:00.703Z,18.17
2023-04-27T11:43:27.625Z,18.35
2023-04-27T11:45:55.586Z,18.37
2023-04-27T11:48:27.136Z,18.38
2023-04-27T11:50:53.479Z,17.73
2023-04-27T11:53:40.084Z,17.82
2023-04-27T11:56:07.924Z,17.97
2023-04-27T11:58:35.987Z,18.01
2023-04-27T12:01:04.203Z,18.27
2023-04-27T12:03:31.791Z,17.29
2023-04-27T12:06:11.623Z,17.63
2023-04-27T12:08:42.950Z,18.31
2023-04-27T12:11:09.390Z,18.48
2023-04-27T12:13:35.982Z,18.64
2023-04-27T12:16:02.387Z,18.14
2023-04-27T12:18:28.707Z,18.20
2023-04-27T12:20:55.142Z,18.59
2023-04-27T12:23:21.547Z,18.74
2023-04-27T12:25:48.356Z,18.70
2023-04-27T12:28:18.915Z,18.72
2023-04-27T12:30:45.333Z,19.26
2023-04-27T12:33:11.973Z,19.65
2023-04-27T12:35:38.546Z,19.45
2023-04-27T12:38:04.891Z,19.12
2023-04-27T12:40:31.323Z,19.35
2023-04-27T12:43:00.466Z,19.43
2023-04-27T12:45:27.466Z,18.54
2023-04-27T12:48:02.831Z,18.70
2023-04-27T12:50:32.016Z,18.97
2023-04-27T12:52:58.448Z,19.22
2023-04-27T12:55:33.215Z,19.49
2023-04-27T12:58:00.967Z,19.67
2023-04-27T13:00:27.495Z,19.19
2023-04-27T13:02:54.003Z,19.68
2023-04-27T13:05:22.110Z,19.44
2023-04-27T13:07:48.496Z,19.53
2023-04-27T13:10:15.036Z,19.66
2023-04-27T13:12:41.658Z,19.49
2023-04-27T13:15:08.942Z,19.65
2023-04-27T13:17:35.332Z,19.73
2023-04-27T13:20:01.937Z,19.41
2023-04-27T13:22:28.488Z,19.39
2023-04-27T13:24:55.072Z,19.26
2023-04-27T13:27:22.389Z,19.16
2023-04-27T13:29:51.012Z,19.23
2023-04-27T13:32:17.362Z,19.66
2023-04-27T13:34:43.818Z,19.73
2023-04-27T13:37:10.108Z,19.95
2023-04-27T13:39:37.573Z,19.81
2023-04-27T13:42:04.091Z,20.25
2023-04-27T13:44:31.629Z,19.96
2023-04-27T13:46:58.105Z,19.51
2023-04-27T13:49:24.441Z,19.37
2023-04-27T13:51:50.768Z,19.72
2023-04-27T13:54:17.209Z,20.10
2023-04-27T13:56:43.547Z,20.20
2023-04-27T13:59:10.533Z,19.87
2023-04-27T14:01:38.096Z,19.75
2023-04-27T14:04:04.657Z,20.31
2023-04-27T14:06:31.835Z,20.68
2023-04-27T14:08:58.270Z,20.46
2023-04-27T14:11:24.676Z,20.00
2023-04-27T14:13:51.275Z,18.87
2023-04-27T14:16:17.583Z,18.82
2023-04-27T14:18:43.960Z,19.10
2023-04-27T14:21:10.456Z,19.58
2023-04-27T14:23:36.867Z,19.48
2023-04-27T14:26:04.002Z,19.89
2023-04-27T14:28:30.331Z,20.47
2023-04-27T14:30:56.624Z,20.58
2023-04-27T14:33:22.948Z,20.18
2023-04-27T14:35:49.298Z,19.75
2023-04-27T14:38:15.679Z,19.34
2023-04-27T14:40:42.333Z,18.74
2023-04-27T14:43:08.671Z,18.81
2023-04-27T14:45:47.767Z,18.98
2023-04-27T14:48:17.813Z,19.54
2023-04-27T14:50:44.405Z,18.82
2023-04-27T14:53:10.934Z,18.73
2023-04-27T14:55:37.264Z,18.80
2023-04-27T14:58:03.601Z,18.91
2023-04-27T15:00:29.954Z,19.34
2023-04-27T15:02:56.362Z,18.84
2023-04-27T15:05:22.878Z,18.63
2023-04-27T15:07:49.285Z,18.51
2023-04-27T15:10:15.732Z,18.15
2023-04-27T15:12:42.298Z,18.04
2023-04-27T15:15:10.478Z,18.22
2023-04-27T15:17:37.057Z,18.40
2023-04-27T15:20:05.572Z,18.50
2023-04-27T15:22:32.080Z,18.52
2023-04-27T15:24:58.460Z,18.42
2023-04-27T15:27:26.106Z,18.49
2023-04-27T15:29:55.675Z,18.45
2023-04-27T15:32:24.409Z,18.53
2023-04-27T15:34:51.703Z,18.75
2023-04-27T15:37:18.045Z,18.50
2023-04-27T15:39:44.395Z,18.42
2023-04-27T15:42:10.812Z,18.48
2023-04-27T15:44:37.135Z,18.51
2023-04-27T15:47:03.753Z,18.31
2023-04-27T15:49:30.448Z,18.15
2023-04-27T15:51:56.843Z,18.68
2023-04-27T15:54:23.261Z,18.70
2023-04-27T15:56:49.625Z,18.72
2023-04-27T15:59:16.241Z,18.88
2023-04-27T16:01:42.989Z,18.62
2023-04-27T16:04:09.696Z,18.53
2023-04-27T16:06:36.682Z,18.70
2023-04-27T16:09:03.792Z,18.71
2023-04-27T16:11:31.271Z,18.68
2023-04-27T16:13:57.829Z,18.71
2023-04-27T16:16:24.329Z,18.97
2023-04-27T16:18:50.736Z,18.84
2023-04-27T16:21:17.111Z,18.66
2023-04-27T16:23:43.524Z,18.59
2023-04-27T16:26:09.890Z,18.52
2023-04-27T16:28:36.409Z,18.38
2023-04-27T16:31:02.977Z,18.46
2023-04-27T16:33:29.371Z,18.06
2023-04-27T16:35:57.177Z,18.22
2023-04-27T16:38:23.619Z,18.31
2023-04-27T16:40:50.053Z,18.15
2023-04-27T16:43:16.368Z,18.16
2023-04-27T16:45:42.704Z,18.22
2023-04-27T16:48:12.347Z,18.21
2023-04-27T16:50:39.051Z,18.30
2023-04-27T16:53:10.791Z,18.19
2023-04-27T16:55:37.339Z,18.19
2023-04-27T16:58:03.750Z,17.94
2023-04-27T17:00:30.360Z,17.75
2023-04-27T17:02:56.954Z,17.56
2023-04-27T17:05:23.448Z,17.46
2023-04-27T17:07:49.814Z,17.44
2023-04-27T17:10:16.848Z,17.49
2023-04-27T17:12:43.233Z,17.31
2023-04-27T17:15:10.463Z,17.42
2023-04-27T17:17:36.868Z,17.43
2023-04-27T17:20:04.283Z,17.36
2023-04-27T17:22:30.911Z,17.22
2023-04-27T17:24:57.439Z,17.13
2023-04-27T17:27:23.827Z,17.16
2023-04-27T17:29:51.829Z,17.18
2023-04-27T17:32:18.219Z,17.16
2023-04-27T17:34:45.165Z,17.06
2023-04-27T17:37:11.553Z,17.02
2023-04-27T17:39:37.872Z,17.00
2023-04-27T17:42:04.330Z,17.01
2023-04-27T17:44:30.683Z,17.03
2023-04-27T17:46:57.134Z,16.88
2023-04-27T17:49:23.598Z,16.86
2023-04-27T17:51:49.977Z,16.92
2023-04-27T17:54:16.408Z,16.92
2023-04-27T17:56:42.823Z,16.69
2023-04-27T17:59:09.346Z,16.55
2023-04-27T18:01:35.820Z,16.65
2023-04-27T18:04:04.606Z,16.48
2023-04-27T18:06:31.926Z,16.49
2023-04-27T18:08:58.293Z,16.39
2023-04-27T18:11:24.714Z,16.36
2023-04-27T18:13:51.226Z,16.19
2023-04-27T18:16:17.585Z,15.96
2023-04-27T18:18:43.996Z,15.88
2023-04-27T18:21:10.499Z,15.78
2023-04-27T18:23:37.862Z,15.68
2023-04-27T18:26:04.481Z,15.60
2023-04-27T18:28:30.848Z,15.56
2023-04-27T18:30:57.140Z,15.52
2023-04-27T18:33:23.533Z,15.55
2023-04-27T18:35:50.638Z,15.58
2023-04-27T18:38:17.017Z,15.48
2023-04-27T18:40:44.537Z,15.36
2023-04-27T18:43:11.191Z,15.28
2023-04-27T18:45:37.585Z,15.33
2023-04-27T18:48:04.089Z,15.34
2023-04-27T18:50:30.417Z,15.25
2023-04-27T18:52:58.849Z,15.15
2023-04-27T18:55:25.257Z,15.06
2023-04-27T18:57:51.672Z,14.97
2023-04-27T19:00:18.159Z,14.83
2023-04-27T19:02:44.572Z,14.80
2023-04-27T19:05:13.474Z,14.81
2023-04-27T19:07:40.223Z,14.83
2023-04-27T19:10:07.162Z,14.77
2023-04-27T19:12:33.564Z,14.70
2023-04-27T19:14:59.850Z,14.63
2023-04-27T19:17:26.747Z,14.52
2023-04-27T19:19:53.350Z,14.43
2023-04-27T19:22:19.703Z,14.34
2023-04-27T19:24:46.019Z,14.38
2023-04-27T19:27:12.553Z,14.28
2023-04-27T19:29:53.805Z,14.23
2023-04-27T19:32:21.722Z,14.05
2023-04-27T19:34:48.502Z,13.95
2023-04-27T19:37:14.860Z,13.97
2023-04-27T19:39:41.384Z,13.94
2023-04-27T19:42:07.821Z,14.03
2023-04-27T19:44:34.200Z,14.06
2023-04-27T19:47:00.659Z,14.09
2023-04-27T19:49:30.747Z,13.98
2023-04-27T19:51:57.038Z,13.98
2023-04-27T19:54:23.418Z,13.95
2023-04-27T19:56:49.830Z,13.89
2023-04-27T19:59:16.218Z,13.78
2023-04-27T20:01:42.508Z,13.83
2023-04-27T20:04:09.010Z,13.79
2023-04-27T20:06:35.669Z,13.66
2023-04-27T20:09:02.119Z,13.63
2023-04-27T20:11:28.406Z,13.70
2023-04-27T20:13:54.706Z,13.72
2023-04-27T20:16:21.508Z,13.71
2023-04-27T20:18:49.527Z,13.66
2023-04-27T20:21:16.300Z,13.65
2023-04-27T20:23:42.770Z,13.69
2023-04-27T20:26:09.148Z,13.67
2023-04-27T20:28:35.517Z,13.62
2023-04-27T20:31:01.844Z,13.61
2023-04-27T20:33:28.141Z,13.55
2023-04-27T20:36:03.704Z,13.48
2023-04-27T20:38:32.987Z,13.43
2023-04-27T20:41:00.785Z,13.44
2023-04-27T20:43:27.220Z,13.40
2023-04-27T20:45:53.586Z,13.39
2023-04-27T20:48:19.976Z,13.39
2023-04-27T20:50:46.277Z,13.31
2023-04-27T20:53:12.625Z,13.34
2023-04-27T20:55:39.280Z,13.36
2023-04-27T20:58:05.869Z,13.24
2023-04-27T21:00:32.209Z,13.04
2023-04-27T21:02:58.730Z,12.92
2023-04-27T21:05:25.715Z,12.83
2023-04-27T21:07:52.067Z,12.82
2023-04-27T21:10:18.516Z,12.79
2023-04-27T21:12:44.875Z,12.76
2023-04-27T21:15:11.910Z,12.70
2023-04-27T21:17:38.245Z,12.59
2023-04-27T21:20:04.976Z,12.62
2023-04-27T21:22:31.303Z,12.69
2023-04-27T21:24:57.587Z,12.73
2023-04-27T21:27:24.962Z,12.66
2023-04-27T21:29:51.280Z,12.70
2023-04-27T21:32:17.664Z,12.69
2023-04-27T21:34:43.998Z,12.73
2023-04-27T21:37:10.368Z,12.73
2023-04-27T21:39:36.799Z,12.65
2023-04-27T21:42:03.305Z,12.64
2023-04-27T21:44:29.692Z,12.62
2023-04-27T21:46:55.997Z,12.54
2023-04-27T21:49:22.448Z,12.53
2023-04-27T21:51:48.734Z,12.46
2023-04-27T21:54:15.241Z,12.49
2023-04-27T21:56:41.764Z,12.47
2023-04-27T21:59:08.350Z,12.46
2023-04-27T22:01:34.755Z,12.43
2023-04-27T22:04:02.043Z,12.41
2023-04-27T22:06:28.678Z,12.34
2023-04-27T22:08:55.095Z,12.36
2023-04-27T22:11:21.503Z,12.26
2023-04-27T22:13:47.847Z,12.19
2023-04-27T22:16:14.284Z,12.23
2023-04-27T22:18:40.650Z,12.14
2023-04-27T22:21:08.194Z,12.20
2023-04-27T22:23:34.523Z,12.19
2023-04-27T22:26:00.894Z,12.25
2023-04-27T22:28:27.229Z,12.20
2023-04-27T22:30:55.329Z,12.16
2023-04-27T22:33:21.690Z,12.19
2023-04-27T22:35:48.230Z,12.16
2023-04-27T22:38:14.648Z,12.09
2023-04-27T22:40:41.195Z,11.96
2023-04-27T22:43:07.526Z,11.97
2023-04-27T22:45:34.509Z,11.98
2023-04-27T22:48:02.049Z,11.95
2023-04-27T22:50:28.998Z,11.96
2023-04-27T22:52:55.322Z,11.94
2023-04-27T22:55:22.223Z,11.95
2023-04-27T22:57:49.921Z,11.98
2023-04-27T23:00:16.330Z,11.96
2023-04-27T23:02:42.913Z,11.92
2023-04-27T23:05:10.785Z,11.91
2023-04-27T23:07:37.416Z,11.87
2023-04-27T23:10:06.088Z,11.88
2023-04-27T23:12:33.054Z,11.80
2023-04-27T23:14:59.549Z,11.84
2023-04-27T23:17:32.071Z,11.85
2023-04-27T23:19:59.622Z,11.85
2023-04-27T23:22:26.770Z,11.79
2023-04-27T23:24:53.893Z,11.82
2023-04-27T23:27:21.286Z,11.80
2023-04-27T23:29:47.663Z,11.81
2023-04-27T23:32:14.023Z,11.82
2023-04-27T23:34:40.281Z,11.81
2023-04-27T23:37:07.601Z,11.78
2023-04-27T23:39:33.916Z,11.76
2023-04-27T23:42:00.566Z,11.81
2023-04-27T23:44:27.387Z,11.82
2023-04-27T23:46:54.055Z,11.81
2023-04-27T23:49:20.365Z,11.83
2023-04-27T23:51:46.961Z,11.76
2023-04-27T23:54:13.613Z,11.80
2023-04-27T23:56:40.083Z,11.81
2023-04-27T23:59:06.437Z,11.83
